Time;durP1;ratioP1;P1;durP2;ratioP2;P2;SDS_P1;SDS_P2;PMS_P1;PMS_P2;Temp;Humidity;BMP_temperature;BMP_pressure;BME280_temperature;BME280_humidity;BME280_pressure;Samples;Min_cycle;Max_cycle;Signal;HPM_P1;HPM_P2
2022/07/30 00:01:55;;;;;;;12.10;8.15;;;;;;;;;;5015414;28;20636;-79
2022/07/30 00:04:23;;;;;;;11.07;8.05;;;;;;;;;;5019235;28;20120;-79
2022/07/30 00:06:49;;;;;;;13.43;8.38;;;;;;;;;;5026754;28;20072;-79
2022/07/30 00:09:16;;;;;;;14.73;8.52;;;;;;;;;;5029031;28;20042;-79
2022/07/30 00:11:42;;;;;;;13.75;9.38;;;;;;;;;;5025734;28;20129;-79
2022/07/30 00:14:09;;;;;;;13.00;9.25;;;;;;;;;;5025051;28;20052;-80
2022/07/30 00:16:35;;;;;;;14.68;10.23;;;;;;;;;;5009536;28;20098;-80
2022/07/30 00:19:02;;;;;;;14.75;9.68;;;;;;;;;;5024176;28;20129;-80
2022/07/30 00:21:34;;;;;;;15.95;9.63;;;;;;;;;;5029274;28;20042;-79
2022/07/30 00:24:04;;;;;;;16.13;9.50;;;;;;;;;;5028774;28;20057;-79
2022/07/30 00:26:31;;;;;;;15.13;9.77;;;;;;;;;;5033117;28;20069;-81
2022/07/30 00:28:57;;;;;;;16.10;10.13;;;;;;;;;;5031597;28;20050;-81
2022/07/30 00:31:24;;;;;;;13.07;9.80;;;;;;;;;;5031288;28;20042;-80
2022/07/30 00:33:50;;;;;;;11.43;9.23;;;;;;;;;;5029840;28;20030;-80
2022/07/30 00:36:16;;;;;;;14.23;9.43;;;;;;;;;;5029884;28;20050;-79
2022/07/30 00:38:43;;;;;;;14.25;9.90;;;;;;;;;;5007616;28;20057;-79
2022/07/30 00:41:11;;;;;;;15.98;9.27;;;;;;;;;;5028509;28;20256;-81
2022/07/30 00:43:37;;;;;;;13.88;9.48;;;;;;;;;;5030202;28;20053;-82
2022/07/30 00:46:04;;;;;;;12.13;9.20;;;;;;;;;;5030071;28;20050;-78
2022/07/30 00:48:36;;;;;;;15.07;9.73;;;;;;;;;;5020439;28;20052;-79
2022/07/30 00:51:03;;;;;;;12.15;9.13;;;;;;;;;;5001252;28;20088;-79
2022/07/30 00:53:29;;;;;;;15.23;9.73;;;;;;;;;;5020862;28;20514;-80
2022/07/30 00:55:59;;;;;;;16.00;10.63;;;;;;;;;;5022713;28;20177;-79
2022/07/30 00:58:26;;;;;;;11.73;9.60;;;;;;;;;;5025581;28;20054;-81
2022/07/30 01:00:53;;;;;;;16.17;10.15;;;;;;;;;;5026139;28;20053;-79
2022/07/30 01:03:22;;;;;;;13.18;9.65;;;;;;;;;;5023174;28;20161;-79
2022/07/30 01:05:49;;;;;;;14.77;10.38;;;;;;;;;;5023699;28;20073;-78
2022/07/30 01:08:15;;;;;;;15.13;9.75;;;;;;;;;;5019863;28;20399;-79
2022/07/30 01:10:42;;;;;;;14.73;10.18;;;;;;;;;;5016408;28;20060;-77
2022/07/30 01:13:11;;;;;;;14.18;10.70;;;;;;;;;;5014306;28;20085;-78
2022/07/30 01:15:38;;;;;;;16.25;11.32;;;;;;;;;;5016968;28;20096;-80
2022/07/30 01:18:06;;;;;;;14.32;10.82;;;;;;;;;;5027116;28;20054;-81
2022/07/30 01:20:39;;;;;;;18.40;11.70;;;;;;;;;;5028605;28;20076;-79
2022/07/30 01:23:06;;;;;;;18.65;12.27;;;;;;;;;;5027666;28;20069;-79
2022/07/30 01:25:51;;;;;;;15.20;11.90;;;;;;;;;;5025226;28;20085;-80
2022/07/30 01:28:24;;;;;;;18.95;11.80;;;;;;;;;;5028327;28;20048;-79
2022/07/30 01:30:51;;;;;;;17.73;11.98;;;;;;;;;;5023509;28;20056;-80
2022/07/30 01:33:18;;;;;;;20.15;12.57;;;;;;;;;;5022387;28;20050;-78
2022/07/30 01:35:45;;;;;;;19.20;13.05;;;;;;;;;;5017447;28;20042;-78
2022/07/30 01:38:15;;;;;;;15.43;12.27;;;;;;;;;;5013091;28;20085;-78
2022/07/30 01:40:42;;;;;;;20.10;13.75;;;;;;;;;;5016926;28;20049;-78
2022/07/30 01:43:12;;;;;;;21.40;13.38;;;;;;;;;;5015679;28;20057;-80
2022/07/30 01:45:39;;;;;;;20.73;13.90;;;;;;;;;;5021253;28;20924;-80
2022/07/30 01:48:13;;;;;;;22.38;14.18;;;;;;;;;;5024757;28;20046;-81
2022/07/30 01:50:42;;;;;;;26.85;13.88;;;;;;;;;;5027220;28;20104;-81
2022/07/30 01:53:08;;;;;;;19.23;14.02;;;;;;;;;;5026743;28;20046;-79
2022/07/30 01:55:38;;;;;;;22.88;14.68;;;;;;;;;;5018377;28;20037;-80
2022/07/30 01:58:05;;;;;;;23.90;15.02;;;;;;;;;;5028015;28;20077;-80
2022/07/30 02:00:33;;;;;;;18.55;14.75;;;;;;;;;;5027346;28;20058;-78
2022/07/30 02:02:59;;;;;;;21.73;15.07;;;;;;;;;;5026698;28;20073;-79
2022/07/30 02:05:26;;;;;;;20.00;14.75;;;;;;;;;;5027613;28;20053;-81
2022/07/30 02:08:05;;;;;;;21.25;15.60;;;;;;;;;;5029648;28;20046;-80
2022/07/30 02:10:50;;;;;;;21.80;15.43;;;;;;;;;;5029147;28;20042;-78
2022/07/30 02:13:21;;;;;;;21.80;16.05;;;;;;;;;;5027595;28;20112;-80
2022/07/30 02:15:49;;;;;;;24.17;16.88;;;;;;;;;;5029570;28;20057;-80
2022/07/30 02:18:19;;;;;;;24.08;17.52;;;;;;;;;;5027146;28;20054;-80
2022/07/30 02:21:00;;;;;;;24.17;16.75;;;;;;;;;;5028136;28;20050;-79
2022/07/30 02:23:37;;;;;;;22.98;15.95;;;;;;;;;;5030606;28;20125;-80
2022/07/30 02:26:04;;;;;;;24.70;17.08;;;;;;;;;;5032522;28;20054;-80
2022/07/30 02:28:33;;;;;;;25.70;16.42;;;;;;;;;;5015309;28;20052;-83
2022/07/30 02:31:00;;;;;;;24.67;17.70;;;;;;;;;;5032130;28;20048;-80
2022/07/30 02:33:29;;;;;;;24.63;17.20;;;;;;;;;;5030615;28;20084;-80
2022/07/30 02:35:58;;;;;;;29.85;18.17;;;;;;;;;;5032207;28;20056;-80
2022/07/30 02:38:26;;;;;;;23.00;16.10;;;;;;;;;;5032930;28;20053;-79
2022/07/30 02:40:54;;;;;;;27.50;19.13;;;;;;;;;;5031069;28;20046;-81
2022/07/30 02:43:23;;;;;;;26.00;18.42;;;;;;;;;;5024680;28;20057;-79
2022/07/30 02:45:50;;;;;;;26.92;19.60;;;;;;;;;;5030319;28;20077;-80
2022/07/30 02:48:19;;;;;;;25.70;18.02;;;;;;;;;;5028484;28;20045;-80
2022/07/30 02:51:01;;;;;;;25.42;18.60;;;;;;;;;;5013209;28;20477;-80
2022/07/30 02:53:29;;;;;;;26.80;18.40;;;;;;;;;;5026980;28;20038;-81
2022/07/30 02:55:55;;;;;;;29.35;19.30;;;;;;;;;;5027302;28;20609;-80
2022/07/30 02:58:24;;;;;;;27.65;19.23;;;;;;;;;;5027819;28;20068;-80
2022/07/30 03:00:52;;;;;;;27.85;19.17;;;;;;;;;;5025124;28;20057;-79
2022/07/30 03:03:19;;;;;;;27.08;19.38;;;;;;;;;;5028980;28;20109;-80
2022/07/30 03:05:48;;;;;;;28.60;19.85;;;;;;;;;;5034121;28;20057;-79
2022/07/30 03:08:15;;;;;;;27.23;19.38;;;;;;;;;;5030005;28;20065;-80
2022/07/30 03:10:46;;;;;;;27.50;19.77;;;;;;;;;;5019532;28;20068;-78
2022/07/30 03:13:13;;;;;;;29.35;20.13;;;;;;;;;;5016403;28;20042;-77
2022/07/30 03:15:43;;;;;;;30.58;21.00;;;;;;;;;;5015987;28;20568;-78
2022/07/30 03:18:11;;;;;;;30.73;21.55;;;;;;;;;;5014487;28;20481;-79
2022/07/30 03:20:37;;;;;;;32.22;21.98;;;;;;;;;;5022131;28;20054;-80
2022/07/30 03:23:05;;;;;;;32.65;22.30;;;;;;;;;;5023156;28;20065;-79
2022/07/30 03:25:33;;;;;;;36.08;24.02;;;;;;;;;;5023065;28;20078;-78
2022/07/30 03:28:00;;;;;;;36.10;23.98;;;;;;;;;;5022134;28;20496;-80
2022/07/30 03:30:27;;;;;;;35.72;23.38;;;;;;;;;;5024003;28;20074;-78
2022/07/30 03:32:54;;;;;;;36.25;24.00;;;;;;;;;;5024595;28;20419;-78
2022/07/30 03:35:23;;;;;;;31.88;22.13;;;;;;;;;;5020166;28;20076;-78
2022/07/30 03:37:52;;;;;;;35.97;24.52;;;;;;;;;;5017659;28;20045;-79
2022/07/30 03:40:18;;;;;;;35.60;24.55;;;;;;;;;;5020001;28;20054;-78
2022/07/30 03:42:47;;;;;;;37.72;24.60;;;;;;;;;;5020773;28;20072;-79
2022/07/30 03:45:14;;;;;;;40.28;26.08;;;;;;;;;;5031094;28;20037;-79
2022/07/30 03:47:41;;;;;;;41.15;27.08;;;;;;;;;;5026262;28;20084;-79
2022/07/30 03:50:09;;;;;;;43.22;29.15;;;;;;;;;;5023237;28;20054;-79
2022/07/30 03:52:37;;;;;;;42.08;28.27;;;;;;;;;;5028919;28;20042;-79
2022/07/30 03:55:09;;;;;;;48.20;29.50;;;;;;;;;;5027878;28;20046;-81
2022/07/30 03:57:39;;;;;;;45.00;29.52;;;;;;;;;;5032557;28;20257;-80
2022/07/30 04:00:07;;;;;;;43.42;29.35;;;;;;;;;;5011863;28;20049;-80
2022/07/30 04:02:39;;;;;;;50.10;31.30;;;;;;;;;;5021391;28;20038;-80
2022/07/30 04:05:06;;;;;;;44.85;29.92;;;;;;;;;;5020078;28;20110;-80
2022/07/30 04:07:32;;;;;;;44.10;28.65;;;;;;;;;;5017334;28;20072;-80
2022/07/30 04:10:06;;;;;;;49.05;30.58;;;;;;;;;;5021352;28;20049;-80
2022/07/30 04:12:35;;;;;;;42.13;28.02;;;;;;;;;;5006744;28;20089;-79
2022/07/30 04:15:02;;;;;;;43.33;28.40;;;;;;;;;;5020280;28;20088;-79
2022/07/30 04:17:52;;;;;;;42.35;27.95;;;;;;;;;;5020294;28;20049;-79
2022/07/30 04:20:28;;;;;;;41.85;28.20;;;;;;;;;;5003606;28;20478;-78
2022/07/30 04:22:54;;;;;;;;;;;;;;;;;;5021887;28;20498;-77
2022/07/30 04:25:23;;;;;;;41.95;28.08;;;;;;;;;;5022722;28;19928;-78
2022/07/30 04:27:50;;;;;;;43.55;27.77;;;;;;;;;;5023767;28;20046;-80
2022/07/30 04:30:28;;;;;;;45.35;29.13;;;;;;;;;;5021944;28;20108;-79
2022/07/30 04:32:55;;;;;;;45.20;27.80;;;;;;;;;;5018114;28;20050;-78
2022/07/30 04:35:28;;;;;;;41.08;27.42;;;;;;;;;;5022529;28;20042;-79
2022/07/30 04:38:14;;;;;;;40.47;26.88;;;;;;;;;;5021122;28;20053;-77
2022/07/30 04:40:41;;;;;;;37.53;25.88;;;;;;;;;;5023626;28;20050;-80
2022/07/30 04:43:07;;;;;;;39.38;27.23;;;;;;;;;;5025610;28;20049;-79
2022/07/30 04:45:34;;;;;;;38.03;26.30;;;;;;;;;;5027718;28;20049;-81
2022/07/30 04:48:00;;;;;;;40.90;27.30;;;;;;;;;;5009560;28;20050;-80
2022/07/30 04:50:31;;;;;;;40.92;26.60;;;;;;;;;;5027305;28;20069;-80
2022/07/30 04:52:58;;;;;;;39.55;27.15;;;;;;;;;;5026196;28;20046;-81
2022/07/30 04:55:30;;;;;;;38.15;25.92;;;;;;;;;;5025071;28;20048;-80
2022/07/30 04:57:58;;;;;;;37.80;27.33;;;;;;;;;;5026089;28;20049;-81
2022/07/30 05:00:27;;;;;;;39.35;27.90;;;;;;;;;;5026954;28;20105;-79
2022/07/30 05:02:58;;;;;;;42.25;27.60;;;;;;;;;;5026950;28;20096;-80
2022/07/30 05:05:26;;;;;;;39.33;26.00;;;;;;;;;;5026340;28;20046;-81
2022/07/30 05:07:53;;;;;;;38.40;24.70;;;;;;;;;;5028092;28;20050;-79
2022/07/30 05:10:20;;;;;;;35.67;25.70;;;;;;;;;;5027694;28;20041;-80
2022/07/30 05:12:46;;;;;;;37.83;24.88;;;;;;;;;;5023175;28;20053;-79
2022/07/30 05:15:13;;;;;;;33.58;24.40;;;;;;;;;;5025346;28;20046;-79
2022/07/30 05:17:39;;;;;;;34.22;22.98;;;;;;;;;;5002128;28;20069;-80
2022/07/30 05:20:06;;;;;;;33.47;23.40;;;;;;;;;;5022980;28;20494;-82
2022/07/30 05:22:32;;;;;;;32.33;23.67;;;;;;;;;;5026191;28;20068;-80
2022/07/30 05:24:58;;;;;;;38.88;25.35;;;;;;;;;;5021409;28;20041;-80
2022/07/30 05:27:25;;;;;;;34.17;24.15;;;;;;;;;;5018881;28;20050;-79
2022/07/30 05:29:51;;;;;;;35.78;24.48;;;;;;;;;;5015141;28;20088;-79
2022/07/30 05:32:21;;;;;;;35.55;25.20;;;;;;;;;;5013860;28;20072;-79
2022/07/30 05:34:50;;;;;;;36.75;25.33;;;;;;;;;;5014961;28;20045;-78
2022/07/30 05:37:17;;;;;;;39.90;25.92;;;;;;;;;;5015926;28;20046;-80
2022/07/30 05:39:44;;;;;;;35.90;25.02;;;;;;;;;;5017405;28;20292;-79
2022/07/30 05:42:28;;;;;;;38.00;25.23;;;;;;;;;;5015548;28;20085;-78
2022/07/30 05:44:55;;;;;;;39.15;25.63;;;;;;;;;;5020962;28;20062;-78
2022/07/30 05:47:21;;;;;;;35.50;24.23;;;;;;;;;;5014642;28;20050;-78
2022/07/30 05:49:48;;;;;;;37.35;24.40;;;;;;;;;;5002382;28;20046;-82
2022/07/30 05:52:14;;;;;;;34.03;23.92;;;;;;;;;;5018561;28;20045;-79
2022/07/30 05:54:41;;;;;;;39.10;25.38;;;;;;;;;;5021230;28;20046;-78
2022/07/30 05:57:07;;;;;;;39.35;25.85;;;;;;;;;;5023254;28;20041;-78
2022/07/30 05:59:34;;;;;;;40.67;26.35;;;;;;;;;;5024272;28;20050;-80
2022/07/30 06:02:01;;;;;;;42.70;28.25;;;;;;;;;;5025726;28;20076;-81
2022/07/30 06:04:28;;;;;;;47.03;27.50;;;;;;;;;;5020676;28;20101;-79
2022/07/30 06:06:56;;;;;;;47.03;28.80;;;;;;;;;;5014360;28;20111;-80
2022/07/30 06:09:23;;;;;;;48.63;28.55;;;;;;;;;;5026046;28;20049;-81
2022/07/30 06:12:02;;;;;;;48.55;29.30;;;;;;;;;;5026794;28;20069;-80
2022/07/30 06:14:30;;;;;;;42.70;26.98;;;;;;;;;;5026293;28;20046;-81
2022/07/30 06:16:57;;;;;;;45.38;28.95;;;;;;;;;;5006746;28;20050;-80
2022/07/30 06:19:25;;;;;;;44.17;28.67;;;;;;;;;;5017209;28;20053;-79
2022/07/30 06:21:51;;;;;;;40.00;26.27;;;;;;;;;;5013334;28;20085;-80
2022/07/30 06:24:31;;;;;;;43.70;28.75;;;;;;;;;;5015671;28;20050;-80
2022/07/30 06:26:58;;;;;;;39.22;27.02;;;;;;;;;;5025106;28;20050;-80
2022/07/30 06:29:24;;;;;;;42.90;26.98;;;;;;;;;;5030352;28;20117;-80
2022/07/30 06:31:51;;;;;;;45.47;29.42;;;;;;;;;;5015580;28;20073;-79
2022/07/30 06:34:20;;;;;;;49.40;29.88;;;;;;;;;;5015227;28;20041;-79
2022/07/30 06:36:47;;;;;;;47.97;28.88;;;;;;;;;;5014163;28;20109;-81
2022/07/30 06:39:14;;;;;;;48.95;28.90;;;;;;;;;;5013999;28;20077;-78
2022/07/30 06:42:00;;;;;;;45.58;27.80;;;;;;;;;;5000306;28;20136;-80
2022/07/30 06:44:26;;;;;;;43.60;27.73;;;;;;;;;;5019643;28;20052;-81
2022/07/30 06:46:53;;;;;;;47.88;28.58;;;;;;;;;;5019151;28;20475;-81
2022/07/30 06:49:19;;;;;;;43.75;27.77;;;;;;;;;;5013234;28;20042;-78
2022/07/30 06:51:46;;;;;;;44.70;27.70;;;;;;;;;;5012182;28;20142;-79
2022/07/30 06:54:13;;;;;;;43.85;25.73;;;;;;;;;;5015370;28;20495;-78
2022/07/30 06:56:39;;;;;;;44.15;27.13;;;;;;;;;;5014593;28;20064;-79
2022/07/30 06:59:06;;;;;;;43.70;26.65;;;;;;;;;;5018487;28;20057;-79
2022/07/30 07:01:32;;;;;;;46.05;27.98;;;;;;;;;;5012493;28;20050;-79
2022/07/30 07:03:59;;;;;;;45.00;28.17;;;;;;;;;;5010765;28;20054;-79
2022/07/30 07:06:25;;;;;;;50.13;29.65;;;;;;;;;;5012351;28;20054;-79
2022/07/30 07:08:52;;;;;;;46.85;28.75;;;;;;;;;;5014156;28;20066;-79
2022/07/30 07:11:18;;;;;;;46.35;29.15;;;;;;;;;;5011967;28;20505;-79
2022/07/30 07:13:44;;;;;;;47.75;30.05;;;;;;;;;;5014368;28;20046;-80
2022/07/30 07:16:11;;;;;;;47.15;30.27;;;;;;;;;;5018418;28;20422;-79
2022/07/30 07:18:37;;;;;;;53.40;31.70;;;;;;;;;;5013222;28;20613;-79
2022/07/30 07:21:04;;;;;;;52.15;29.00;;;;;;;;;;5012002;28;20046;-80
2022/07/30 07:23:33;;;;;;;44.05;29.40;;;;;;;;;;5014334;28;20088;-80
2022/07/30 07:26:07;;;;;;;40.65;28.17;;;;;;;;;;5018355;28;20100;-80
2022/07/30 07:28:34;;;;;;;43.15;27.70;;;;;;;;;;5001027;28;20045;-79
2022/07/30 07:31:00;;;;;;;39.78;27.77;;;;;;;;;;5014935;28;20112;-79
2022/07/30 07:33:27;;;;;;;36.22;25.55;;;;;;;;;;5010589;28;20077;-79
2022/07/30 07:35:54;;;;;;;31.90;22.77;;;;;;;;;;5013737;28;20046;-80
2022/07/30 07:38:20;;;;;;;32.00;23.42;;;;;;;;;;5011997;28;20128;-78
2022/07/30 07:40:47;;;;;;;33.72;24.42;;;;;;;;;;5013169;28;20084;-79
2022/07/30 07:43:14;;;;;;;38.05;24.75;;;;;;;;;;5012849;28;20049;-78
2022/07/30 07:45:40;;;;;;;37.40;24.95;;;;;;;;;;4996549;28;20077;-81
2022/07/30 07:48:07;;;;;;;39.53;24.75;;;;;;;;;;5012040;28;20057;-80
2022/07/30 07:50:34;;;;;;;44.85;25.60;;;;;;;;;;5017213;28;20045;-80
2022/07/30 07:53:00;;;;;;;40.05;23.58;;;;;;;;;;5021012;28;20042;-80
2022/07/30 07:55:26;;;;;;;36.33;23.42;;;;;;;;;;5012791;28;20518;-80
2022/07/30 07:57:56;;;;;;;41.55;24.33;;;;;;;;;;5011843;28;20145;-79
2022/07/30 08:00:23;;;;;;;39.30;24.08;;;;;;;;;;5016248;28;20073;-78
2022/07/30 08:02:49;;;;;;;42.90;24.30;;;;;;;;;;5019847;28;20287;-81
2022/07/30 08:05:18;;;;;;;43.75;25.42;;;;;;;;;;5015938;28;20085;-79
2022/07/30 08:07:45;;;;;;;43.38;26.02;;;;;;;;;;5015445;28;20324;-79
2022/07/30 08:10:13;;;;;;;48.05;26.38;;;;;;;;;;5013801;28;20105;-79
2022/07/30 08:12:41;;;;;;;49.05;27.40;;;;;;;;;;5020826;28;20499;-80
2022/07/30 08:15:08;;;;;;;45.08;27.23;;;;;;;;;;5021533;28;20311;-79
2022/07/30 08:17:45;;;;;;;41.40;27.05;;;;;;;;;;5017346;28;20103;-79
2022/07/30 08:20:13;;;;;;;41.17;27.15;;;;;;;;;;5017885;28;20113;-79
2022/07/30 08:22:40;;;;;;;43.38;26.45;;;;;;;;;;5018417;28;20097;-78
2022/07/30 08:25:06;;;;;;;40.53;26.55;;;;;;;;;;5017698;28;20085;-79
2022/07/30 08:27:33;;;;;;;41.10;27.23;;;;;;;;;;5016976;28;20085;-79
2022/07/30 08:30:04;;;;;;;47.03;27.40;;;;;;;;;;5017525;28;20073;-79
2022/07/30 08:32:31;;;;;;;41.30;26.70;;;;;;;;;;5015588;28;20042;-79
2022/07/30 08:34:57;;;;;;;38.08;25.75;;;;;;;;;;5013781;28;20133;-78
2022/07/30 08:37:25;;;;;;;35.95;25.88;;;;;;;;;;5019166;28;20054;-81
2022/07/30 08:39:51;;;;;;;31.73;22.90;;;;;;;;;;5020172;28;20057;-78
2022/07/30 08:42:18;;;;;;;28.27;20.90;;;;;;;;;;5018114;28;20049;-81
2022/07/30 08:44:45;;;;;;;28.55;19.10;;;;;;;;;;5019354;28;20073;-79
2022/07/30 08:47:14;;;;;;;22.25;16.17;;;;;;;;;;5019456;28;20652;-80
2022/07/30 08:49:41;;;;;;;17.42;11.50;;;;;;;;;;5019325;28;20056;-80
2022/07/30 08:52:09;;;;;;;16.08;11.85;;;;;;;;;;5018656;28;20050;-79
2022/07/30 08:54:35;;;;;;;19.02;12.38;;;;;;;;;;5017343;28;20503;-80
2022/07/30 08:57:02;;;;;;;16.25;12.80;;;;;;;;;;5019517;28;20053;-81
2022/07/30 08:59:30;;;;;;;21.33;13.93;;;;;;;;;;5020199;28;20240;-80
2022/07/30 09:02:16;;;;;;;16.25;13.45;;;;;;;;;;5016199;28;20479;-79
2022/07/30 09:04:53;;;;;;;16.38;12.07;;;;;;;;;;5018777;28;20049;-78
2022/07/30 09:07:19;;;;;;;16.65;13.07;;;;;;;;;;5020739;28;20535;-80
2022/07/30 09:09:46;;;;;;;19.15;12.38;;;;;;;;;;5022205;28;20116;-80
2022/07/30 09:12:30;;;;;;;12.77;9.32;;;;;;;;;;5020858;28;20121;-80
2022/07/30 09:15:00;;;;;;;16.70;10.70;;;;;;;;;;5019330;28;20058;-80
2022/07/30 09:17:27;;;;;;;13.77;9.85;;;;;;;;;;5019214;28;20077;-79
2022/07/30 09:20:02;;;;;;;15.90;10.63;;;;;;;;;;5015684;28;20053;-80
2022/07/30 09:22:42;;;;;;;13.77;10.95;;;;;;;;;;5018449;28;20052;-80
2022/07/30 09:25:09;;;;;;;17.77;11.00;;;;;;;;;;5018218;28;20049;-79
2022/07/30 09:27:45;;;;;;;16.70;10.20;;;;;;;;;;5017132;28;20128;-80
2022/07/30 09:30:12;;;;;;;13.23;10.27;;;;;;;;;;5016143;28;20135;-79
2022/07/30 09:32:49;;;;;;;12.88;9.43;;;;;;;;;;5015963;28;20049;-80
2022/07/30 09:35:16;;;;;;;14.00;9.38;;;;;;;;;;5013522;28;20056;-80
2022/07/30 09:37:44;;;;;;;13.55;10.07;;;;;;;;;;5017874;28;20144;-78
2022/07/30 09:40:15;;;;;;;11.88;9.05;;;;;;;;;;5019916;28;20149;-78
2022/07/30 09:42:42;;;;;;;14.77;9.00;;;;;;;;;;5018000;28;20092;-79
2022/07/30 09:45:13;;;;;;;13.63;10.50;;;;;;;;;;5016186;28;20157;-79
2022/07/30 09:47:41;;;;;;;13.93;9.75;;;;;;;;;;5015534;28;20526;-78
2022/07/30 09:50:09;;;;;;;14.38;10.90;;;;;;;;;;5020518;28;20080;-80
2022/07/30 09:52:36;;;;;;;11.63;9.77;;;;;;;;;;5021768;28;20076;-79
2022/07/30 09:55:27;;;;;;;12.85;8.65;;;;;;;;;;5034863;28;20081;-81
2022/07/30 09:57:56;;;;;;;9.50;8.00;;;;;;;;;;5035279;28;20054;-80
2022/07/30 10:00:25;;;;;;;9.18;7.82;;;;;;;;;;5028648;28;20085;-79
2022/07/30 10:02:52;;;;;;;12.23;7.82;;;;;;;;;;5020116;28;20046;-80
2022/07/30 10:05:19;;;;;;;13.30;9.02;;;;;;;;;;5014780;28;20054;-79
2022/07/30 10:07:50;;;;;;;11.93;7.85;;;;;;;;;;5014181;28;20085;-79
2022/07/30 10:10:18;;;;;;;9.20;7.47;;;;;;;;;;5023002;28;20046;-79
2022/07/30 10:12:46;;;;;;;11.63;7.25;;;;;;;;;;5017505;28;20042;-80
2022/07/30 10:15:14;;;;;;;11.52;7.65;;;;;;;;;;5017153;28;20458;-79
2022/07/30 10:17:41;;;;;;;10.48;8.07;;;;;;;;;;5014501;28;20053;-79
2022/07/30 10:20:07;;;;;;;11.30;7.97;;;;;;;;;;5015745;28;20133;-77
2022/07/30 10:22:34;;;;;;;11.68;7.88;;;;;;;;;;5015438;28;20058;-78
2022/07/30 10:25:03;;;;;;;10.73;8.43;;;;;;;;;;5017566;28;20465;-80
2022/07/30 10:27:30;;;;;;;11.23;7.90;;;;;;;;;;5015687;28;20054;-79
2022/07/30 10:29:57;;;;;;;10.82;7.90;;;;;;;;;;5017672;28;20050;-79
2022/07/30 10:32:28;;;;;;;11.13;8.60;;;;;;;;;;5017026;28;20374;-80
2022/07/30 10:34:57;;;;;;;13.57;8.20;;;;;;;;;;5020252;28;20046;-80
2022/07/30 10:37:24;;;;;;;10.52;7.63;;;;;;;;;;5019923;28;20451;-78
2022/07/30 10:39:53;;;;;;;11.55;8.05;;;;;;;;;;5013701;28;20046;-79
2022/07/30 10:42:27;;;;;;;11.10;7.60;;;;;;;;;;5017285;28;20144;-81
2022/07/30 10:45:12;;;;;;;8.18;7.00;;;;;;;;;;5014366;28;20132;-79
2022/07/30 10:47:44;;;;;;;11.05;7.35;;;;;;;;;;5014167;28;20108;-79
2022/07/30 10:50:19;;;;;;;9.75;7.43;;;;;;;;;;5017917;28;20041;-80
2022/07/30 10:52:52;;;;;;;9.45;7.90;;;;;;;;;;5019845;28;20307;-79
2022/07/30 10:55:28;;;;;;;12.10;7.50;;;;;;;;;;5023596;28;20111;-79
2022/07/30 10:58:03;;;;;;;11.60;8.10;;;;;;;;;;5015288;28;20062;-81
2022/07/30 11:00:36;;;;;;;10.85;7.47;;;;;;;;;;5015089;28;20057;-77
2022/07/30 11:03:10;;;;;;;10.30;7.28;;;;;;;;;;5029409;28;20105;-78
2022/07/30 11:05:41;;;;;;;8.75;6.65;;;;;;;;;;5016107;28;20548;-79
2022/07/30 11:08:29;;;;;;;9.18;7.13;;;;;;;;;;5022324;28;20061;-79
2022/07/30 11:11:03;;;;;;;8.05;6.80;;;;;;;;;;5015627;28;20069;-80
2022/07/30 11:13:48;;;;;;;9.45;7.18;;;;;;;;;;5017133;28;20050;-78
2022/07/30 11:16:16;;;;;;;8.55;6.35;;;;;;;;;;5015700;28;20061;-79
2022/07/30 11:19:03;;;;;;;8.45;6.55;;;;;;;;;;5012009;28;20505;-79
2022/07/30 11:22:08;;;;;;;9.98;6.25;;;;;;;;;;5015784;28;20068;-78
2022/07/30 11:24:46;;;;;;;9.40;6.72;;;;;;;;;;5017899;28;20503;-80
2022/07/30 11:27:33;;;;;;;7.82;5.70;;;;;;;;;;5019793;28;20053;-80
2022/07/30 11:30:02;;;;;;;9.02;6.15;;;;;;;;;;5022014;28;20518;-80
2022/07/30 11:32:30;;;;;;;7.90;6.00;;;;;;;;;;5016691;28;20049;-78
2022/07/30 11:35:10;;;;;;;11.30;6.57;;;;;;;;;;5015638;28;20046;-79
2022/07/30 11:37:57;;;;;;;9.75;7.10;;;;;;;;;;5018881;28;20073;-80
2022/07/30 11:40:31;;;;;;;10.45;6.80;;;;;;;;;;5022402;28;20050;-80
2022/07/30 11:43:31;;;;;;;7.72;6.63;;;;;;;;;;5022158;28;20050;-81
2022/07/30 11:46:05;;;;;;;11.35;7.93;;;;;;;;;;5017830;28;20053;-80
2022/07/30 11:48:36;;;;;;;7.50;6.00;;;;;;;;;;5024852;28;20049;-81
2022/07/30 11:51:02;;;;;;;8.30;5.75;;;;;;;;;;5024204;28;20078;-80
2022/07/30 11:53:29;;;;;;;7.45;5.38;;;;;;;;;;5020942;28;20042;-81
2022/07/30 11:55:57;;;;;;;7.88;4.97;;;;;;;;;;5025721;28;20255;-80
2022/07/30 11:58:28;;;;;;;6.88;5.13;;;;;;;;;;5024482;28;20104;-78
2022/07/30 12:00:55;;;;;;;6.43;4.82;;;;;;;;;;5024672;28;20081;-79
2022/07/30 12:03:23;;;;;;;7.32;4.35;;;;;;;;;;5019709;28;20111;-81
2022/07/30 12:05:49;;;;;;;10.23;4.65;;;;;;;;;;5022065;28;20141;-80
2022/07/30 12:08:19;;;;;;;7.00;4.90;;;;;;;;;;5022008;28;20050;-79
2022/07/30 12:11:00;;;;;;;10.13;5.13;;;;;;;;;;5020563;28;20049;-81
2022/07/30 12:13:27;;;;;;;8.57;5.38;;;;;;;;;;5023859;28;20061;-80
2022/07/30 12:16:12;;;;;;;7.30;5.13;;;;;;;;;;5026952;28;20046;-80
2022/07/30 12:18:39;;;;;;;6.30;4.70;;;;;;;;;;5024736;28;20054;-81
2022/07/30 12:21:08;;;;;;;8.10;5.50;;;;;;;;;;5024970;28;20058;-80
2022/07/30 12:23:34;;;;;;;8.90;5.30;;;;;;;;;;5025800;28;20077;-80
2022/07/30 12:26:01;;;;;;;9.35;5.20;;;;;;;;;;5029077;28;20084;-80
2022/07/30 12:28:29;;;;;;;8.15;5.15;;;;;;;;;;5029280;28;20050;-80
2022/07/30 12:30:56;;;;;;;9.40;6.00;;;;;;;;;;5027940;28;20050;-80
2022/07/30 12:33:23;;;;;;;7.88;5.13;;;;;;;;;;5024661;28;20061;-81
2022/07/30 12:35:54;;;;;;;7.75;5.45;;;;;;;;;;5026837;28;20057;-80
2022/07/30 12:38:21;;;;;;;11.38;6.05;;;;;;;;;;5029887;28;20112;-82
2022/07/30 12:40:51;;;;;;;7.60;5.00;;;;;;;;;;5027721;28;20049;-82
2022/07/30 12:43:36;;;;;;;9.18;5.50;;;;;;;;;;5026414;28;20065;-80
2022/07/30 12:46:04;;;;;;;6.57;5.38;;;;;;;;;;5027555;28;20086;-81
2022/07/30 12:48:30;;;;;;;12.35;5.70;;;;;;;;;;5024189;28;20053;-81
2022/07/30 12:51:04;;;;;;;10.15;5.68;;;;;;;;;;5025383;28;20153;-81
2022/07/30 12:53:32;;;;;;;11.70;6.28;;;;;;;;;;5023624;28;20042;-81
2022/07/30 12:56:28;;;;;;;8.70;5.93;;;;;;;;;;5022132;28;20530;-81
2022/07/30 12:58:56;;;;;;;9.18;6.30;;;;;;;;;;5014512;28;20045;-79
2022/07/30 13:01:39;;;;;;;10.95;6.20;;;;;;;;;;5025023;28;20049;-80
2022/07/30 13:04:06;;;;;;;10.82;6.20;;;;;;;;;;5023796;28;20057;-81
2022/07/30 13:06:33;;;;;;;8.77;6.32;;;;;;;;;;5028615;28;20068;-80
2022/07/30 13:09:00;;;;;;;8.35;6.13;;;;;;;;;;5023593;28;20438;-79
2022/07/30 13:11:46;;;;;;;9.45;6.20;;;;;;;;;;5027275;28;20157;-80
2022/07/30 13:14:15;;;;;;;12.50;6.97;;;;;;;;;;5024952;28;20132;-79
2022/07/30 13:16:42;;;;;;;9.20;6.07;;;;;;;;;;5026509;28;20052;-80
2022/07/30 13:19:12;;;;;;;9.10;5.45;;;;;;;;;;5022302;28;20080;-80
2022/07/30 13:21:40;;;;;;;11.57;6.25;;;;;;;;;;5028202;28;20038;-81
2022/07/30 13:24:15;;;;;;;8.43;6.15;;;;;;;;;;5036268;28;20041;-82
2022/07/30 13:26:43;;;;;;;8.77;6.20;;;;;;;;;;5037295;28;20041;-82
2022/07/30 13:29:12;;;;;;;9.05;6.47;;;;;;;;;;5036560;28;20041;-81
2022/07/30 13:31:39;;;;;;;12.88;6.82;;;;;;;;;;5034256;28;20046;-80
2022/07/30 13:34:09;;;;;;;10.95;7.07;;;;;;;;;;5029872;28;20133;-81
2022/07/30 13:36:35;;;;;;;9.93;7.03;;;;;;;;;;5028342;28;20054;-80
2022/07/30 13:39:02;;;;;;;8.88;6.63;;;;;;;;;;5030549;28;20458;-81
2022/07/30 13:41:28;;;;;;;12.27;7.38;;;;;;;;;;5025778;28;20045;-81
2022/07/30 13:43:55;;;;;;;10.80;5.95;;;;;;;;;;5029921;28;20077;-79
2022/07/30 13:46:21;;;;;;;9.20;6.68;;;;;;;;;;5028823;28;20057;-81
2022/07/30 13:48:48;;;;;;;10.13;6.60;;;;;;;;;;5040585;28;20045;-80
2022/07/30 13:51:15;;;;;;;9.98;5.80;;;;;;;;;;5026325;28;20041;-81
2022/07/30 13:53:41;;;;;;;10.55;6.45;;;;;;;;;;5021118;28;20075;-82
2022/07/30 13:56:08;;;;;;;11.55;6.53;;;;;;;;;;5017111;28;20046;-79
2022/07/30 13:58:38;;;;;;;13.25;5.78;;;;;;;;;;5019559;28;20061;-78
2022/07/30 14:01:05;;;;;;;6.53;5.45;;;;;;;;;;5019979;28;20526;-79
2022/07/30 14:03:33;;;;;;;10.07;5.75;;;;;;;;;;5022480;28;20081;-80
2022/07/30 14:05:59;;;;;;;8.95;5.47;;;;;;;;;;5023629;28;20590;-80
2022/07/30 14:08:36;;;;;;;10.60;5.45;;;;;;;;;;5022169;28;20046;-79
2022/07/30 14:11:05;;;;;;;8.13;4.90;;;;;;;;;;5021006;28;20100;-80
2022/07/30 14:13:31;;;;;;;6.88;4.28;;;;;;;;;;5023546;28;20050;-80
2022/07/30 14:15:58;;;;;;;6.18;4.22;;;;;;;;;;5025753;28;20065;-81
2022/07/30 14:18:24;;;;;;;6.32;4.10;;;;;;;;;;5023618;28;20295;-78
2022/07/30 14:20:52;;;;;;;7.93;4.00;;;;;;;;;;5023578;28;20060;-78
2022/07/30 14:23:21;;;;;;;7.65;4.70;;;;;;;;;;5022179;28;20096;-80
2022/07/30 14:25:47;;;;;;;7.35;4.20;;;;;;;;;;5026367;28;20050;-80
2022/07/30 14:28:14;;;;;;;7.38;4.18;;;;;;;;;;5027292;28;20054;-80
2022/07/30 14:30:40;;;;;;;6.97;4.30;;;;;;;;;;5026349;28;20073;-80
2022/07/30 14:33:07;;;;;;;7.80;3.90;;;;;;;;;;5024667;28;20663;-81
2022/07/30 14:35:33;;;;;;;10.38;4.18;;;;;;;;;;5027625;28;20052;-80
2022/07/30 14:38:02;;;;;;;5.80;3.63;;;;;;;;;;5028526;28;20050;-81
2022/07/30 14:40:28;;;;;;;5.97;3.25;;;;;;;;;;5027525;28;20042;-81